sensor_id;sensor_type;location;lat;lon;timestamp;P1;durP1;ratioP1;P2;durP2;ratioP2
5175;SDS011;2607;50.934;6.934;2022-10-18T00:02:10;12.40;;;5.87;;
5175;SDS011;2607;50.934;6.934;2022-10-18T00:04:35;10.80;;;6.87;;
5175;SDS011;2607;50.934;6.934;2022-10-18T00:07:01;8.37;;;6.23;;
5175;SDS011;2607;50.934;6.934;2022-10-18T00:09:27;15.03;;;7.40;;
5175;SDS011;2607;50.934;6.934;2022-10-18T00:11:53;6.20;;;5.30;;
5175;SDS011;2607;50.934;6.934;2022-10-18T00:14:19;7.60;;;6.23;;
5175;SDS011;2607;50.934;6.934;2022-10-18T00:16:44;13.23;;;6.60;;
5175;SDS011;2607;50.934;6.934;2022-10-18T00:19:10;7.47;;;6.20;;
5175;SDS011;2607;50.934;6.934;2022-10-18T00:21:35;6.63;;;6.03;;
5175;SDS011;2607;50.934;6.934;2022-10-18T00:24:01;6.93;;;6.20;;
5175;SDS011;2607;50.934;6.934;2022-10-18T00:26:27;8.17;;;6.43;;
5175;SDS011;2607;50.934;6.934;2022-10-18T00:28:55;8.37;;;7.47;;
5175;SDS011;2607;50.934;6.934;2022-10-18T00:31:24;13.27;;;6.80;;
5175;SDS011;2607;50.934;6.934;2022-10-18T00:33:55;9.37;;;6.77;;
5175;SDS011;2607;50.934;6.934;2022-10-18T00:36:22;7.93;;;6.27;;
5175;SDS011;2607;50.934;6.934;2022-10-18T00:38:48;7.63;;;6.50;;
5175;SDS011;2607;50.934;6.934;2022-10-18T00:41:16;9.20;;;7.37;;
5175;SDS011;2607;50.934;6.934;2022-10-18T00:46:28;9.93;;;7.10;;
5175;SDS011;2607;50.934;6.934;2022-10-18T00:48:56;9.23;;;7.77;;
5175;SDS011;2607;50.934;6.934;2022-10-18T00:51:29;14.70;;;9.70;;
5175;SDS011;2607;50.934;6.934;2022-10-18T00:53:57;11.77;;;8.77;;
5175;SDS011;2607;50.934;6.934;2022-10-18T00:56:23;12.13;;;8.70;;
5175;SDS011;2607;50.934;6.934;2022-10-18T00:58:49;14.07;;;8.40;;
5175;SDS011;2607;50.934;6.934;2022-10-18T01:01:15;10.53;;;8.67;;
5175;SDS011;2607;50.934;6.934;2022-10-18T01:03:41;13.43;;;9.57;;
5175;SDS011;2607;50.934;6.934;2022-10-18T01:06:07;13.43;;;10.20;;
5175;SDS011;2607;50.934;6.934;2022-10-18T01:13:50;10.60;;;9.50;;
5175;SDS011;2607;50.934;6.934;2022-10-18T01:18:52;12.10;;;9.57;;
5175;SDS011;2607;50.934;6.934;2022-10-18T01:21:50;14.13;;;9.57;;
5175;SDS011;2607;50.934;6.934;2022-10-18T01:32:36;10.00;;;8.93;;
5175;SDS011;2607;50.934;6.934;2022-10-18T01:35:08;11.00;;;9.70;;
5175;SDS011;2607;50.934;6.934;2022-10-18T01:37:37;12.67;;;9.83;;
5175;SDS011;2607;50.934;6.934;2022-10-18T01:40:06;14.33;;;10.03;;
5175;SDS011;2607;50.934;6.934;2022-10-18T01:42:33;12.80;;;10.57;;
5175;SDS011;2607;50.934;6.934;2022-10-18T01:44:59;14.50;;;10.90;;
5175;SDS011;2607;50.934;6.934;2022-10-18T01:47:27;11.50;;;9.73;;
5175;SDS011;2607;50.934;6.934;2022-10-18T01:49:57;12.53;;;10.07;;
5175;SDS011;2607;50.934;6.934;2022-10-18T01:52:24;13.73;;;11.60;;
5175;SDS011;2607;50.934;6.934;2022-10-18T01:54:50;16.57;;;10.73;;
5175;SDS011;2607;50.934;6.934;2022-10-18T01:57:34;14.37;;;11.00;;
5175;SDS011;2607;50.934;6.934;2022-10-18T02:00:05;15.97;;;12.10;;
5175;SDS011;2607;50.934;6.934;2022-10-18T02:02:51;14.60;;;10.80;;
5175;SDS011;2607;50.934;6.934;2022-10-18T02:05:32;14.50;;;11.30;;
5175;SDS011;2607;50.934;6.934;2022-10-18T02:08:26;14.20;;;10.57;;
5175;SDS011;2607;50.934;6.934;2022-10-18T02:11:08;19.83;;;11.83;;
5175;SDS011;2607;50.934;6.934;2022-10-18T02:16:17;17.60;;;12.40;;
5175;SDS011;2607;50.934;6.934;2022-10-18T02:18:52;13.80;;;10.80;;
5175;SDS011;2607;50.934;6.934;2022-10-18T02:21:21;15.23;;;10.60;;
5175;SDS011;2607;50.934;6.934;2022-10-18T02:23:51;18.70;;;11.50;;
5175;SDS011;2607;50.934;6.934;2022-10-18T02:26:17;17.00;;;11.67;;
5175;SDS011;2607;50.934;6.934;2022-10-18T02:28:43;16.80;;;11.90;;
5175;SDS011;2607;50.934;6.934;2022-10-18T02:36:12;16.47;;;11.10;;
5175;SDS011;2607;50.934;6.934;2022-10-18T02:39:03;17.10;;;10.70;;
5175;SDS011;2607;50.934;6.934;2022-10-18T02:41:35;12.10;;;10.40;;
5175;SDS011;2607;50.934;6.934;2022-10-18T02:44:01;14.10;;;11.03;;
5175;SDS011;2607;50.934;6.934;2022-10-18T02:46:26;17.23;;;11.90;;
5175;SDS011;2607;50.934;6.934;2022-10-18T02:48:52;16.00;;;12.00;;
5175;SDS011;2607;50.934;6.934;2022-10-18T02:51:18;13.83;;;11.50;;
5175;SDS011;2607;50.934;6.934;2022-10-18T02:53:43;19.20;;;11.80;;
5175;SDS011;2607;50.934;6.934;2022-10-18T02:56:09;20.03;;;13.67;;
5175;SDS011;2607;50.934;6.934;2022-10-18T02:58:34;15.40;;;12.20;;
5175;SDS011;2607;50.934;6.934;2022-10-18T03:01:00;17.30;;;11.37;;
5175;SDS011;2607;50.934;6.934;2022-10-18T03:03:25;23.70;;;14.50;;
5175;SDS011;2607;50.934;6.934;2022-10-18T03:05:51;17.17;;;13.10;;
5175;SDS011;2607;50.934;6.934;2022-10-18T03:08:17;16.70;;;10.77;;
5175;SDS011;2607;50.934;6.934;2022-10-18T03:10:43;12.50;;;8.00;;
5175;SDS011;2607;50.934;6.934;2022-10-18T03:13:10;5.60;;;3.20;;
5175;SDS011;2607;50.934;6.934;2022-10-18T03:15:36;0.50;;;0.50;;
5175;SDS011;2607;50.934;6.934;2022-10-18T03:18:01;0.50;;;0.50;;
5175;SDS011;2607;50.934;6.934;2022-10-18T03:20:27;0.50;;;0.50;;
5175;SDS011;2607;50.934;6.934;2022-10-18T03:22:53;0.50;;;0.50;;
5175;SDS011;2607;50.934;6.934;2022-10-18T03:25:18;0.50;;;0.50;;
5175;SDS011;2607;50.934;6.934;2022-10-18T03:27:44;0.50;;;0.50;;
5175;SDS011;2607;50.934;6.934;2022-10-18T03:30:10;0.50;;;0.50;;
5175;SDS011;2607;50.934;6.934;2022-10-18T03:32:37;0.70;;;0.70;;
5175;SDS011;2607;50.934;6.934;2022-10-18T03:35:04;0.80;;;0.80;;
5175;SDS011;2607;50.934;6.934;2022-10-18T03:37:30;0.50;;;0.50;;
5175;SDS011;2607;50.934;6.934;2022-10-18T03:39:56;0.50;;;0.50;;
5175;SDS011;2607;50.934;6.934;2022-10-18T03:42:21;0.57;;;0.57;;
5175;SDS011;2607;50.934;6.934;2022-10-18T03:44:47;0.70;;;0.70;;
5175;SDS011;2607;50.934;6.934;2022-10-18T03:47:12;0.50;;;0.50;;
5175;SDS011;2607;50.934;6.934;2022-10-18T03:49:38;0.97;;;0.87;;
5175;SDS011;2607;50.934;6.934;2022-10-18T03:52:04;0.50;;;0.50;;
5175;SDS011;2607;50.934;6.934;2022-10-18T03:54:29;0.50;;;0.50;;
5175;SDS011;2607;50.934;6.934;2022-10-18T03:56:55;0.50;;;0.50;;
5175;SDS011;2607;50.934;6.934;2022-10-18T03:59:21;0.50;;;0.50;;
5175;SDS011;2607;50.934;6.934;2022-10-18T04:01:47;0.60;;;0.60;;
5175;SDS011;2607;50.934;6.934;2022-10-18T04:04:12;0.70;;;0.70;;
5175;SDS011;2607;50.934;6.934;2022-10-18T04:06:38;0.50;;;0.50;;
5175;SDS011;2607;50.934;6.934;2022-10-18T04:09:04;0.50;;;0.50;;
5175;SDS011;2607;50.934;6.934;2022-10-18T04:11:29;0.50;;;0.50;;
5175;SDS011;2607;50.934;6.934;2022-10-18T04:13:55;0.50;;;0.50;;
5175;SDS011;2607;50.934;6.934;2022-10-18T04:16:21;0.50;;;0.50;;
5175;SDS011;2607;50.934;6.934;2022-10-18T04:18:46;0.50;;;0.50;;
5175;SDS011;2607;50.934;6.934;2022-10-18T04:21:12;0.50;;;0.50;;
5175;SDS011;2607;50.934;6.934;2022-10-18T04:23:38;0.50;;;0.50;;
5175;SDS011;2607;50.934;6.934;2022-10-18T04:26:03;1.93;;;1.83;;
5175;SDS011;2607;50.934;6.934;2022-10-18T04:28:29;0.50;;;0.50;;
5175;SDS011;2607;50.934;6.934;2022-10-18T04:30:54;0.50;;;0.50;;
5175;SDS011;2607;50.934;6.934;2022-10-18T04:33:20;0.50;;;0.50;;
5175;SDS011;2607;50.934;6.934;2022-10-18T04:35:46;0.47;;;0.47;;
5175;SDS011;2607;50.934;6.934;2022-10-18T04:38:14;0.50;;;0.50;;
5175;SDS011;2607;50.934;6.934;2022-10-18T04:40:40;0.50;;;0.50;;
5175;SDS011;2607;50.934;6.934;2022-10-18T04:43:05;0.50;;;0.50;;
5175;SDS011;2607;50.934;6.934;2022-10-18T04:45:31;0.70;;;0.70;;
5175;SDS011;2607;50.934;6.934;2022-10-18T04:47:56;0.50;;;0.50;;
5175;SDS011;2607;50.934;6.934;2022-10-18T04:50:22;0.50;;;0.50;;
5175;SDS011;2607;50.934;6.934;2022-10-18T04:52:47;0.50;;;0.50;;
5175;SDS011;2607;50.934;6.934;2022-10-18T04:55:13;0.50;;;0.50;;
5175;SDS011;2607;50.934;6.934;2022-10-18T04:57:39;0.50;;;0.50;;
5175;SDS011;2607;50.934;6.934;2022-10-18T05:00:04;0.50;;;0.50;;
5175;SDS011;2607;50.934;6.934;2022-10-18T05:02:30;0.50;;;0.50;;
5175;SDS011;2607;50.934;6.934;2022-10-18T05:04:56;0.50;;;0.50;;
5175;SDS011;2607;50.934;6.934;2022-10-18T05:07:21;0.50;;;0.50;;
5175;SDS011;2607;50.934;6.934;2022-10-18T05:09:47;2.37;;;1.33;;
5175;SDS011;2607;50.934;6.934;2022-10-18T05:12:12;0.50;;;0.50;;
5175;SDS011;2607;50.934;6.934;2022-10-18T05:14:38;7.00;;;1.23;;
5175;SDS011;2607;50.934;6.934;2022-10-18T05:17:03;0.60;;;0.60;;
5175;SDS011;2607;50.934;6.934;2022-10-18T05:19:29;0.60;;;0.60;;
5175;SDS011;2607;50.934;6.934;2022-10-18T05:21:54;0.50;;;0.50;;
5175;SDS011;2607;50.934;6.934;2022-10-18T05:24:20;0.50;;;0.50;;
5175;SDS011;2607;50.934;6.934;2022-10-18T05:26:45;0.50;;;0.50;;
5175;SDS011;2607;50.934;6.934;2022-10-18T05:29:11;0.50;;;0.50;;
5175;SDS011;2607;50.934;6.934;2022-10-18T05:31:36;0.50;;;0.50;;
5175;SDS011;2607;50.934;6.934;2022-10-18T05:34:02;0.80;;;0.80;;
5175;SDS011;2607;50.934;6.934;2022-10-18T05:36:28;0.50;;;0.50;;
5175;SDS011;2607;50.934;6.934;2022-10-18T05:38:54;0.50;;;0.50;;
5175;SDS011;2607;50.934;6.934;2022-10-18T05:41:19;0.50;;;0.50;;
5175;SDS011;2607;50.934;6.934;2022-10-18T05:43:45;0.50;;;0.50;;
5175;SDS011;2607;50.934;6.934;2022-10-18T05:46:10;0.50;;;0.50;;
5175;SDS011;2607;50.934;6.934;2022-10-18T05:48:36;0.50;;;0.50;;
5175;SDS011;2607;50.934;6.934;2022-10-18T05:51:02;1.27;;;1.23;;
5175;SDS011;2607;50.934;6.934;2022-10-18T05:53:28;0.50;;;0.50;;
5175;SDS011;2607;50.934;6.934;2022-10-18T05:55:54;0.70;;;0.70;;
5175;SDS011;2607;50.934;6.934;2022-10-18T05:58:23;0.57;;;0.57;;
5175;SDS011;2607;50.934;6.934;2022-10-18T06:00:49;0.50;;;0.50;;
5175;SDS011;2607;50.934;6.934;2022-10-18T06:03:15;0.60;;;0.60;;
5175;SDS011;2607;50.934;6.934;2022-10-18T06:05:41;0.50;;;0.50;;
5175;SDS011;2607;50.934;6.934;2022-10-18T06:08:07;1.33;;;1.33;;
5175;SDS011;2607;50.934;6.934;2022-10-18T06:10:32;0.50;;;0.50;;
5175;SDS011;2607;50.934;6.934;2022-10-18T06:12:58;0.50;;;0.50;;
5175;SDS011;2607;50.934;6.934;2022-10-18T06:15:23;0.50;;;0.50;;
5175;SDS011;2607;50.934;6.934;2022-10-18T06:17:49;2.87;;;1.23;;
5175;SDS011;2607;50.934;6.934;2022-10-18T06:20:14;0.50;;;0.50;;
5175;SDS011;2607;50.934;6.934;2022-10-18T06:22:40;1.63;;;1.53;;
5175;SDS011;2607;50.934;6.934;2022-10-18T06:25:05;0.60;;;0.60;;
5175;SDS011;2607;50.934;6.934;2022-10-18T06:27:32;0.40;;;0.40;;
5175;SDS011;2607;50.934;6.934;2022-10-18T06:29:58;0.50;;;0.50;;
5175;SDS011;2607;50.934;6.934;2022-10-18T06:32:24;0.50;;;0.50;;
5175;SDS011;2607;50.934;6.934;2022-10-18T06:34:49;0.50;;;0.50;;
5175;SDS011;2607;50.934;6.934;2022-10-18T06:37:15;0.47;;;0.47;;
5175;SDS011;2607;50.934;6.934;2022-10-18T06:39:40;0.50;;;0.50;;
5175;SDS011;2607;50.934;6.934;2022-10-18T06:42:06;0.47;;;0.47;;
5175;SDS011;2607;50.934;6.934;2022-10-18T06:44:31;0.50;;;0.50;;
5175;SDS011;2607;50.934;6.934;2022-10-18T06:46:57;0.50;;;0.50;;
5175;SDS011;2607;50.934;6.934;2022-10-18T06:49:22;0.90;;;0.90;;
5175;SDS011;2607;50.934;6.934;2022-10-18T06:51:48;0.50;;;0.50;;
5175;SDS011;2607;50.934;6.934;2022-10-18T06:54:13;0.50;;;0.50;;
5175;SDS011;2607;50.934;6.934;2022-10-18T06:56:40;0.50;;;0.50;;
5175;SDS011;2607;50.934;6.934;2022-10-18T06:59:05;0.50;;;0.50;;
5175;SDS011;2607;50.934;6.934;2022-10-18T07:01:31;0.50;;;0.50;;
5175;SDS011;2607;50.934;6.934;2022-10-18T07:03:56;0.70;;;0.70;;
5175;SDS011;2607;50.934;6.934;2022-10-18T07:06:22;0.50;;;0.50;;
5175;SDS011;2607;50.934;6.934;2022-10-18T07:08:49;0.40;;;0.40;;
5175;SDS011;2607;50.934;6.934;2022-10-18T07:11:20;0.50;;;0.50;;
5175;SDS011;2607;50.934;6.934;2022-10-18T07:13:48;0.47;;;0.47;;
5175;SDS011;2607;50.934;6.934;2022-10-18T07:16:15;0.40;;;0.40;;
5175;SDS011;2607;50.934;6.934;2022-10-18T07:18:43;0.50;;;0.50;;
5175;SDS011;2607;50.934;6.934;2022-10-18T07:21:14;0.50;;;0.50;;
5175;SDS011;2607;50.934;6.934;2022-10-18T07:23:41;0.50;;;0.50;;
5175;SDS011;2607;50.934;6.934;2022-10-18T07:28:48;0.50;;;0.50;;
5175;SDS011;2607;50.934;6.934;2022-10-18T07:31:16;0.50;;;0.50;;
5175;SDS011;2607;50.934;6.934;2022-10-18T07:33:42;0.50;;;0.50;;
5175;SDS011;2607;50.934;6.934;2022-10-18T07:36:08;0.50;;;0.50;;
5175;SDS011;2607;50.934;6.934;2022-10-18T07:38:35;0.53;;;0.53;;
5175;SDS011;2607;50.934;6.934;2022-10-18T07:41:01;0.50;;;0.50;;
5175;SDS011;2607;50.934;6.934;2022-10-18T07:43:28;0.63;;;0.63;;
5175;SDS011;2607;50.934;6.934;2022-10-18T07:45:55;0.50;;;0.50;;
5175;SDS011;2607;50.934;6.934;2022-10-18T07:48:23;0.60;;;0.60;;
5175;SDS011;2607;50.934;6.934;2022-10-18T07:50:48;0.47;;;0.47;;
5175;SDS011;2607;50.934;6.934;2022-10-18T07:53:14;0.50;;;0.50;;
5175;SDS011;2607;50.934;6.934;2022-10-18T07:55:40;0.83;;;0.70;;
5175;SDS011;2607;50.934;6.934;2022-10-18T07:58:06;1.00;;;1.00;;
5175;SDS011;2607;50.934;6.934;2022-10-18T08:00:31;0.50;;;0.50;;
5175;SDS011;2607;50.934;6.934;2022-10-18T08:02:57;0.50;;;0.50;;
5175;SDS011;2607;50.934;6.934;2022-10-18T08:05:24;0.80;;;0.80;;
5175;SDS011;2607;50.934;6.934;2022-10-18T08:07:51;2.77;;;2.03;;
5175;SDS011;2607;50.934;6.934;2022-10-18T08:10:17;0.50;;;0.50;;
5175;SDS011;2607;50.934;6.934;2022-10-18T08:12:43;1.00;;;1.00;;
5175;SDS011;2607;50.934;6.934;2022-10-18T08:15:09;0.80;;;0.80;;
5175;SDS011;2607;50.934;6.934;2022-10-18T08:17:35;0.50;;;0.50;;
5175;SDS011;2607;50.934;6.934;2022-10-18T08:20:00;2.03;;;1.93;;
5175;SDS011;2607;50.934;6.934;2022-10-18T08:22:26;0.60;;;0.60;;
5175;SDS011;2607;50.934;6.934;2022-10-18T08:24:52;0.50;;;0.50;;
5175;SDS011;2607;50.934;6.934;2022-10-18T08:27:17;0.50;;;0.50;;
5175;SDS011;2607;50.934;6.934;2022-10-18T08:29:43;0.50;;;0.50;;
5175;SDS011;2607;50.934;6.934;2022-10-18T08:32:08;1.43;;;1.37;;
5175;SDS011;2607;50.934;6.934;2022-10-18T08:34:34;0.50;;;0.50;;
5175;SDS011;2607;50.934;6.934;2022-10-18T08:37:00;0.50;;;0.50;;
5175;SDS011;2607;50.934;6.934;2022-10-18T08:39:26;0.60;;;0.60;;
5175;SDS011;2607;50.934;6.934;2022-10-18T08:42:14;0.50;;;0.50;;
5175;SDS011;2607;50.934;6.934;2022-10-18T08:44:50;1.20;;;1.17;;
5175;SDS011;2607;50.934;6.934;2022-10-18T08:47:21;0.50;;;0.50;;
5175;SDS011;2607;50.934;6.934;2022-10-18T08:50:10;0.50;;;0.50;;
5175;SDS011;2607;50.934;6.934;2022-10-18T08:55:37;1.90;;;1.40;;
5175;SDS011;2607;50.934;6.934;2022-10-18T09:00:51;6.33;;;3.43;;
5175;SDS011;2607;50.934;6.934;2022-10-18T09:06:28;1.73;;;1.63;;
5175;SDS011;2607;50.934;6.934;2022-10-18T09:14:51;0.50;;;0.50;;
5175;SDS011;2607;50.934;6.934;2022-10-18T09:17:49;0.73;;;0.73;;
5175;SDS011;2607;50.934;6.934;2022-10-18T09:20:36;0.50;;;0.50;;
5175;SDS011;2607;50.934;6.934;2022-10-18T09:25:56;2.63;;;2.53;;
5175;SDS011;2607;50.934;6.934;2022-10-18T09:31:45;0.60;;;0.60;;
5175;SDS011;2607;50.934;6.934;2022-10-18T09:34:43;0.50;;;0.50;;
5175;SDS011;2607;50.934;6.934;2022-10-18T09:37:15;0.60;;;0.60;;
5175;SDS011;2607;50.934;6.934;2022-10-18T09:39:43;0.67;;;0.67;;
5175;SDS011;2607;50.934;6.934;2022-10-18T09:42:18;2.30;;;2.10;;
5175;SDS011;2607;50.934;6.934;2022-10-18T09:44:53;6.90;;;1.10;;
5175;SDS011;2607;50.934;6.934;2022-10-18T09:47:27;3.67;;;3.47;;
5175;SDS011;2607;50.934;6.934;2022-10-18T09:50:01;0.50;;;0.50;;
5175;SDS011;2607;50.934;6.934;2022-10-18T09:52:40;0.60;;;0.60;;
5175;SDS011;2607;50.934;6.934;2022-10-18T09:55:14;0.50;;;0.50;;
5175;SDS011;2607;50.934;6.934;2022-10-18T09:57:52;0.80;;;0.80;;
5175;SDS011;2607;50.934;6.934;2022-10-18T10:00:31;0.90;;;0.90;;
5175;SDS011;2607;50.934;6.934;2022-10-18T10:03:09;0.67;;;0.67;;
5175;SDS011;2607;50.934;6.934;2022-10-18T10:05:43;1.70;;;1.60;;
5175;SDS011;2607;50.934;6.934;2022-10-18T10:08:09;0.73;;;0.73;;
5175;SDS011;2607;50.934;6.934;2022-10-18T10:10:37;0.60;;;0.60;;
5175;SDS011;2607;50.934;6.934;2022-10-18T10:13:14;1.07;;;1.07;;
5175;SDS011;2607;50.934;6.934;2022-10-18T10:15:56;0.70;;;0.70;;
5175;SDS011;2607;50.934;6.934;2022-10-18T10:18:26;0.47;;;0.47;;
5175;SDS011;2607;50.934;6.934;2022-10-18T10:21:00;0.50;;;0.50;;
5175;SDS011;2607;50.934;6.934;2022-10-18T10:26:01;0.50;;;0.50;;
5175;SDS011;2607;50.934;6.934;2022-10-18T10:28:44;1.27;;;1.27;;
5175;SDS011;2607;50.934;6.934;2022-10-18T10:31:17;0.60;;;0.60;;
5175;SDS011;2607;50.934;6.934;2022-10-18T10:34:05;0.60;;;0.60;;
5175;SDS011;2607;50.934;6.934;2022-10-18T10:36:50;0.67;;;0.67;;
5175;SDS011;2607;50.934;6.934;2022-10-18T10:39:18;0.60;;;0.60;;
5175;SDS011;2607;50.934;6.934;2022-10-18T10:41:49;0.60;;;0.60;;
5175;SDS011;2607;50.934;6.934;2022-10-18T10:44:24;0.50;;;0.50;;
5175;SDS011;2607;50.934;6.934;2022-10-18T10:46:52;0.50;;;0.50;;
5175;SDS011;2607;50.934;6.934;2022-10-18T10:51:53;2.33;;;2.00;;
5175;SDS011;2607;50.934;6.934;2022-10-18T10:54:21;0.50;;;0.50;;
5175;SDS011;2607;50.934;6.934;2022-10-18T10:56:59;0.50;;;0.50;;
5175;SDS011;2607;50.934;6.934;2022-10-18T10:59:46;0.60;;;0.60;;
5175;SDS011;2607;50.934;6.934;2022-10-18T11:04:42;0.50;;;0.50;;
5175;SDS011;2607;50.934;6.934;2022-10-18T11:07:35;1.10;;;1.10;;
5175;SDS011;2607;50.934;6.934;2022-10-18T11:10:07;0.60;;;0.60;;
5175;SDS011;2607;50.934;6.934;2022-10-18T11:12:37;0.57;;;0.57;;
5175;SDS011;2607;50.934;6.934;2022-10-18T11:22:44;12.30;;;3.07;;
5175;SDS011;2607;50.934;6.934;2022-10-18T11:25:21;5.50;;;2.87;;
5175;SDS011;2607;50.934;6.934;2022-10-18T11:27:53;18.33;;;6.50;;
5175;SDS011;2607;50.934;6.934;2022-10-18T11:47:06;30.77;;;9.73;;
5175;SDS011;2607;50.934;6.934;2022-10-18T11:53:11;28.03;;;12.53;;
5175;SDS011;2607;50.934;6.934;2022-10-18T11:55:55;28.00;;;12.70;;
5175;SDS011;2607;50.934;6.934;2022-10-18T11:58:37;30.20;;;11.93;;
5175;SDS011;2607;50.934;6.934;2022-10-18T12:01:41;39.37;;;14.83;;
5175;SDS011;2607;50.934;6.934;2022-10-18T12:04:19;35.37;;;14.67;;
5175;SDS011;2607;50.934;6.934;2022-10-18T12:06:51;33.63;;;15.77;;
5175;SDS011;2607;50.934;6.934;2022-10-18T12:09:39;48.37;;;17.53;;
5175;SDS011;2607;50.934;6.934;2022-10-18T12:14:55;43.20;;;19.33;;
5175;SDS011;2607;50.934;6.934;2022-10-18T12:20:02;53.83;;;22.00;;
5175;SDS011;2607;50.934;6.934;2022-10-18T12:22:39;61.73;;;21.67;;
5175;SDS011;2607;50.934;6.934;2022-10-18T12:25:11;60.40;;;23.00;;
5175;SDS011;2607;50.934;6.934;2022-10-18T12:28:01;51.47;;;22.47;;
5175;SDS011;2607;50.934;6.934;2022-10-18T12:33:37;51.33;;;22.50;;
5175;SDS011;2607;50.934;6.934;2022-10-18T12:39:02;50.47;;;22.50;;
5175;SDS011;2607;50.934;6.934;2022-10-18T12:41:33;58.93;;;26.53;;
5175;SDS011;2607;50.934;6.934;2022-10-18T12:44:03;69.70;;;28.90;;
5175;SDS011;2607;50.934;6.934;2022-10-18T12:46:54;61.57;;;27.60;;
5175;SDS011;2607;50.934;6.934;2022-10-18T12:49:28;72.60;;;29.70;;
5175;SDS011;2607;50.934;6.934;2022-10-18T12:52:00;72.53;;;32.23;;
5175;SDS011;2607;50.934;6.934;2022-10-18T12:54:29;62.23;;;28.40;;
5175;SDS011;2607;50.934;6.934;2022-10-18T12:56:58;62.97;;;28.77;;
5175;SDS011;2607;50.934;6.934;2022-10-18T13:09:32;62.43;;;27.67;;
5175;SDS011;2607;50.934;6.934;2022-10-18T13:14:41;66.13;;;31.73;;
5175;SDS011;2607;50.934;6.934;2022-10-18T13:17:38;63.47;;;28.97;;
5175;SDS011;2607;50.934;6.934;2022-10-18T13:20:41;75.90;;;30.70;;
5175;SDS011;2607;50.934;6.934;2022-10-18T13:34:30;58.80;;;27.23;;
5175;SDS011;2607;50.934;6.934;2022-10-18T13:37:00;47.20;;;24.30;;
5175;SDS011;2607;50.934;6.934;2022-10-18T13:39:26;45.87;;;23.20;;
5175;SDS011;2607;50.934;6.934;2022-10-18T14:06:37;34.33;;;20.83;;
5175;SDS011;2607;50.934;6.934;2022-10-18T14:16:55;30.57;;;16.80;;
5175;SDS011;2607;50.934;6.934;2022-10-18T14:19:35;32.50;;;15.10;;
5175;SDS011;2607;50.934;6.934;2022-10-18T14:24:53;28.07;;;13.80;;
5175;SDS011;2607;50.934;6.934;2022-10-18T14:27:31;27.00;;;13.73;;
5175;SDS011;2607;50.934;6.934;2022-10-18T14:32:45;24.50;;;14.80;;
5175;SDS011;2607;50.934;6.934;2022-10-18T14:35:23;22.20;;;14.93;;
5175;SDS011;2607;50.934;6.934;2022-10-18T14:37:51;22.50;;;14.30;;
5175;SDS011;2607;50.934;6.934;2022-10-18T14:40:35;25.13;;;14.60;;
5175;SDS011;2607;50.934;6.934;2022-10-18T14:45:33;21.80;;;14.00;;
5175;SDS011;2607;50.934;6.934;2022-10-18T14:48:19;31.53;;;15.37;;
5175;SDS011;2607;50.934;6.934;2022-10-18T14:50:47;23.77;;;13.70;;
5175;SDS011;2607;50.934;6.934;2022-10-18T14:53:24;21.77;;;14.80;;
5175;SDS011;2607;50.934;6.934;2022-10-18T14:55:55;21.17;;;14.33;;
5175;SDS011;2607;50.934;6.934;2022-10-18T14:58:27;29.50;;;14.90;;
5175;SDS011;2607;50.934;6.934;2022-10-18T15:00:53;25.87;;;13.77;;
5175;SDS011;2607;50.934;6.934;2022-10-18T15:03:18;27.23;;;15.27;;
5175;SDS011;2607;50.934;6.934;2022-10-18T15:05:55;28.63;;;15.70;;
5175;SDS011;2607;50.934;6.934;2022-10-18T15:08:22;29.40;;;16.63;;
5175;SDS011;2607;50.934;6.934;2022-10-18T15:10:50;27.67;;;16.97;;
5175;SDS011;2607;50.934;6.934;2022-10-18T15:13:16;32.03;;;17.20;;
5175;SDS011;2607;50.934;6.934;2022-10-18T15:15:42;28.90;;;17.13;;
5175;SDS011;2607;50.934;6.934;2022-10-18T15:18:22;32.47;;;17.57;;
5175;SDS011;2607;50.934;6.934;2022-10-18T15:21:07;26.53;;;16.80;;
5175;SDS011;2607;50.934;6.934;2022-10-18T15:23:49;30.23;;;16.60;;
5175;SDS011;2607;50.934;6.934;2022-10-18T15:26:19;35.60;;;16.97;;
5175;SDS011;2607;50.934;6.934;2022-10-18T15:28:50;34.20;;;16.03;;
5175;SDS011;2607;50.934;6.934;2022-10-18T15:31:21;28.80;;;15.10;;
5175;SDS011;2607;50.934;6.934;2022-10-18T15:33:52;24.23;;;15.03;;
5175;SDS011;2607;50.934;6.934;2022-10-18T15:36:30;25.67;;;15.17;;
5175;SDS011;2607;50.934;6.934;2022-10-18T15:39:03;21.80;;;14.00;;
5175;SDS011;2607;50.934;6.934;2022-10-18T15:41:56;35.17;;;14.37;;
5175;SDS011;2607;50.934;6.934;2022-10-18T15:46:56;26.90;;;14.20;;
5175;SDS011;2607;50.934;6.934;2022-10-18T15:54:34;25.67;;;14.53;;
5175;SDS011;2607;50.934;6.934;2022-10-18T15:57:09;21.57;;;13.20;;
5175;SDS011;2607;50.934;6.934;2022-10-18T15:59:35;22.40;;;13.37;;
5175;SDS011;2607;50.934;6.934;2022-10-18T16:02:13;31.57;;;14.37;;
5175;SDS011;2607;50.934;6.934;2022-10-18T16:04:39;18.30;;;12.10;;
5175;SDS011;2607;50.934;6.934;2022-10-18T16:07:05;17.57;;;12.63;;
5175;SDS011;2607;50.934;6.934;2022-10-18T16:09:30;23.43;;;10.90;;
5175;SDS011;2607;50.934;6.934;2022-10-18T16:11:56;16.80;;;10.50;;
5175;SDS011;2607;50.934;6.934;2022-10-18T16:14:22;17.03;;;10.33;;
5175;SDS011;2607;50.934;6.934;2022-10-18T16:16:51;25.83;;;11.40;;
5175;SDS011;2607;50.934;6.934;2022-10-18T16:19:22;25.13;;;10.30;;
5175;SDS011;2607;50.934;6.934;2022-10-18T16:21:48;22.27;;;12.80;;
5175;SDS011;2607;50.934;6.934;2022-10-18T16:24:15;18.70;;;11.13;;
5175;SDS011;2607;50.934;6.934;2022-10-18T16:26:41;18.80;;;11.53;;
5175;SDS011;2607;50.934;6.934;2022-10-18T16:29:14;17.73;;;10.60;;
5175;SDS011;2607;50.934;6.934;2022-10-18T16:31:42;14.17;;;10.07;;
5175;SDS011;2607;50.934;6.934;2022-10-18T16:34:08;18.57;;;10.40;;
5175;SDS011;2607;50.934;6.934;2022-10-18T16:36:35;30.00;;;12.17;;
5175;SDS011;2607;50.934;6.934;2022-10-18T16:39:02;15.93;;;7.80;;
5175;SDS011;2607;50.934;6.934;2022-10-18T16:41:31;22.83;;;8.10;;
5175;SDS011;2607;50.934;6.934;2022-10-18T16:43:57;25.83;;;9.37;;
5175;SDS011;2607;50.934;6.934;2022-10-18T16:46:26;19.83;;;8.93;;
5175;SDS011;2607;50.934;6.934;2022-10-18T16:48:53;14.37;;;9.10;;
5175;SDS011;2607;50.934;6.934;2022-10-18T16:51:19;20.50;;;10.07;;
5175;SDS011;2607;50.934;6.934;2022-10-18T16:53:45;21.53;;;11.50;;
5175;SDS011;2607;50.934;6.934;2022-10-18T16:56:12;17.90;;;10.30;;
5175;SDS011;2607;50.934;6.934;2022-10-18T16:58:45;17.70;;;9.00;;
5175;SDS011;2607;50.934;6.934;2022-10-18T17:01:16;19.10;;;9.33;;
5175;SDS011;2607;50.934;6.934;2022-10-18T17:03:43;21.30;;;10.27;;
5175;SDS011;2607;50.934;6.934;2022-10-18T17:06:13;21.20;;;10.63;;
5175;SDS011;2607;50.934;6.934;2022-10-18T17:08:40;21.17;;;10.83;;
5175;SDS011;2607;50.934;6.934;2022-10-18T17:11:08;22.10;;;10.03;;
5175;SDS011;2607;50.934;6.934;2022-10-18T17:13:34;21.10;;;7.87;;
5175;SDS011;2607;50.934;6.934;2022-10-18T17:15:59;25.33;;;9.10;;
5175;SDS011;2607;50.934;6.934;2022-10-18T17:18:27;26.60;;;9.30;;
5175;SDS011;2607;50.934;6.934;2022-10-18T17:20:54;21.90;;;9.10;;
5175;SDS011;2607;50.934;6.934;2022-10-18T17:23:21;19.57;;;8.43;;
5175;SDS011;2607;50.934;6.934;2022-10-18T17:25:46;16.10;;;7.60;;
5175;SDS011;2607;50.934;6.934;2022-10-18T17:28:13;22.63;;;8.70;;
5175;SDS011;2607;50.934;6.934;2022-10-18T17:30:41;16.70;;;8.50;;
5175;SDS011;2607;50.934;6.934;2022-10-18T17:33:07;22.50;;;10.40;;
5175;SDS011;2607;50.934;6.934;2022-10-18T17:35:33;18.03;;;9.33;;
5175;SDS011;2607;50.934;6.934;2022-10-18T17:37:59;24.50;;;10.13;;
5175;SDS011;2607;50.934;6.934;2022-10-18T17:40:24;15.67;;;9.10;;
5175;SDS011;2607;50.934;6.934;2022-10-18T17:42:50;17.10;;;8.30;;
5175;SDS011;2607;50.934;6.934;2022-10-18T17:45:17;19.33;;;9.87;;
5175;SDS011;2607;50.934;6.934;2022-10-18T17:47:43;20.10;;;10.87;;
5175;SDS011;2607;50.934;6.934;2022-10-18T17:50:09;39.30;;;22.43;;
5175;SDS011;2607;50.934;6.934;2022-10-18T17:52:35;35.07;;;13.03;;
5175;SDS011;2607;50.934;6.934;2022-10-18T17:55:05;20.83;;;11.50;;
5175;SDS011;2607;50.934;6.934;2022-10-18T17:57:31;22.23;;;10.03;;
5175;SDS011;2607;50.934;6.934;2022-10-18T17:59:56;23.43;;;12.70;;
5175;SDS011;2607;50.934;6.934;2022-10-18T18:02:23;23.33;;;13.60;;
5175;SDS011;2607;50.934;6.934;2022-10-18T18:04:49;21.87;;;11.17;;
5175;SDS011;2607;50.934;6.934;2022-10-18T18:07:14;23.37;;;10.97;;